createdAt,value
2017-11-17T00:01:13.704Z,59.21
2017-11-17T00:03:41.215Z,58.34
2017-11-17T00:06:09.139Z,57.90
2017-11-17T00:08:36.689Z,59.44
2017-11-17T00:11:04.249Z,60.04
2017-11-17T00:13:31.958Z,59.88
2017-11-17T00:15:59.483Z,59.95
2017-11-17T00:18:27.014Z,59.47
2017-11-17T00:20:54.791Z,58.70
2017-11-17T00:23:22.353Z,58.87
2017-11-17T00:25:49.864Z,58.23
2017-11-17T00:28:17.571Z,57.57
2017-11-17T00:30:45.139Z,58.24
2017-11-17T00:33:12.689Z,57.66
2017-11-17T00:35:40.469Z,57.55
2017-11-17T00:38:07.995Z,57.13
2017-11-17T00:40:35.510Z,56.85
2017-11-17T00:43:03.070Z,57.29
2017-11-17T00:45:30.587Z,57.54
2017-11-17T00:47:58.100Z,57.50
2017-11-17T00:50:25.644Z,57.23
2017-11-17T00:52:53.155Z,57.41
2017-11-17T00:55:20.667Z,57.94
2017-11-17T00:57:48.215Z,58.79
2017-11-17T01:00:15.737Z,58.94
2017-11-17T01:02:43.295Z,59.25
2017-11-17T01:05:10.958Z,58.42
2017-11-17T01:07:38.517Z,58.22
2017-11-17T01:10:06.051Z,58.16
2017-11-17T01:12:33.845Z,58.24
2017-11-17T01:15:01.355Z,57.86
2017-11-17T01:17:28.872Z,58.36
2017-11-17T01:19:56.517Z,58.28
2017-11-17T01:22:24.077Z,57.73
2017-11-17T01:24:51.596Z,57.65
2017-11-17T01:27:19.397Z,57.52
2017-11-17T01:29:46.959Z,57.52
2017-11-17T01:32:14.467Z,57.73
2017-11-17T01:34:42.503Z,57.42
2017-11-17T01:37:10.044Z,57.12
2017-11-17T01:39:37.565Z,58.33
2017-11-17T01:42:05.367Z,57.84
2017-11-17T01:44:32.926Z,57.82
2017-11-17T01:47:00.492Z,57.96
2017-11-17T01:49:28.351Z,57.40
2017-11-17T01:51:55.859Z,57.26
2017-11-17T01:54:23.386Z,57.62
2017-11-17T01:56:51.219Z,57.36
2017-11-17T01:59:18.788Z,57.34
2017-11-17T02:01:46.388Z,57.81
2017-11-17T02:04:14.014Z,59.00
2017-11-17T02:06:41.532Z,58.65
2017-11-17T02:09:09.047Z,58.91
2017-11-17T02:11:37.000Z,59.71
2017-11-17T02:14:04.557Z,59.60
2017-11-17T02:16:32.117Z,58.85
2017-11-17T02:18:59.881Z,58.86
2017-11-17T02:21:27.391Z,58.98
2017-11-17T02:23:54.907Z,59.35
2017-11-17T02:26:22.659Z,60.27
2017-11-17T02:28:50.219Z,59.54
2017-11-17T02:31:17.735Z,59.35
2017-11-17T02:33:45.438Z,59.74
2017-11-17T02:36:13.003Z,60.13
2017-11-17T02:38:40.532Z,60.80
2017-11-17T02:41:08.320Z,59.47
2017-11-17T02:43:35.867Z,58.77
2017-11-17T02:46:03.391Z,58.57
2017-11-17T02:48:31.310Z,58.30
2017-11-17T02:50:58.864Z,57.94
2017-11-17T02:53:26.422Z,58.28
2017-11-17T02:55:54.186Z,58.00
2017-11-17T02:58:21.746Z,58.30
2017-11-17T03:00:49.304Z,59.19
2017-11-17T03:03:17.256Z,59.33
2017-11-17T03:05:44.834Z,59.28
2017-11-17T03:08:12.393Z,59.01
2017-11-17T03:10:40.087Z,58.82
2017-11-17T03:13:07.612Z,58.25
2017-11-17T03:15:35.119Z,58.41
2017-11-17T03:18:02.833Z,58.16
2017-11-17T03:20:30.343Z,57.50
2017-11-17T03:22:57.859Z,57.26
2017-11-17T03:25:25.435Z,57.12
2017-11-17T03:27:52.952Z,56.88
2017-11-17T03:30:20.529Z,56.73
2017-11-17T03:32:48.097Z,56.80
2017-11-17T03:35:15.644Z,56.55
2017-11-17T03:37:43.159Z,56.15
2017-11-17T03:40:10.843Z,56.06
2017-11-17T03:42:38.362Z,56.14
2017-11-17T03:45:05.879Z,55.89
2017-11-17T03:47:33.643Z,55.75
2017-11-17T03:50:01.161Z,55.68
2017-11-17T03:52:28.679Z,55.83
2017-11-17T03:54:56.224Z,56.27
2017-11-17T03:57:23.779Z,56.27
2017-11-17T03:59:51.338Z,56.46
2017-11-17T04:02:19.077Z,56.42
2017-11-17T04:04:46.590Z,56.63
2017-11-17T04:07:14.199Z,56.60
2017-11-17T04:09:41.859Z,57.21
2017-11-17T04:12:09.379Z,57.95
2017-11-17T04:14:36.896Z,58.86
2017-11-17T04:17:04.558Z,59.33
2017-11-17T04:19:32.076Z,60.71
2017-11-17T04:21:59.591Z,61.47
2017-11-17T04:24:27.160Z,60.87
2017-11-17T04:26:54.690Z,61.20
2017-11-17T04:29:22.203Z,60.76
2017-11-17T04:31:49.912Z,60.71
2017-11-17T04:34:17.598Z,61.21
2017-11-17T04:36:45.132Z,61.29
2017-11-17T04:39:12.780Z,61.71
2017-11-17T04:41:40.295Z,62.62
2017-11-17T04:44:07.808Z,61.92
2017-11-17T04:46:35.375Z,61.64
2017-11-17T04:49:02.926Z,62.24
2017-11-17T04:51:30.439Z,63.21
2017-11-17T04:53:58.072Z,62.94
2017-11-17T04:56:25.604Z,62.21
2017-11-17T04:58:53.187Z,62.74
2017-11-17T05:01:20.927Z,63.01
2017-11-17T05:03:48.491Z,63.23
2017-11-17T05:06:16.013Z,63.66
2017-11-17T05:08:43.707Z,63.21
2017-11-17T05:11:11.268Z,63.25
2017-11-17T05:13:38.824Z,62.95
2017-11-17T05:16:06.366Z,62.65
2017-11-17T05:18:33.888Z,63.43
2017-11-17T05:21:01.403Z,63.20
2017-11-17T05:23:29.165Z,63.04
2017-11-17T05:25:56.722Z,63.22
2017-11-17T05:28:24.282Z,63.75
2017-11-17T05:30:52.044Z,63.21
2017-11-17T05:33:19.605Z,63.03
2017-11-17T05:35:47.115Z,63.61
2017-11-17T05:38:14.927Z,63.96
2017-11-17T05:40:42.434Z,63.82
2017-11-17T05:43:09.946Z,64.45
2017-11-17T05:45:37.608Z,63.97
2017-11-17T05:48:05.168Z,64.93
2017-11-17T05:50:32.729Z,64.81
2017-11-17T05:53:00.692Z,64.86
2017-11-17T05:55:28.557Z,64.94
2017-11-17T05:57:56.073Z,65.91
2017-11-17T06:00:23.880Z,65.19
2017-11-17T06:02:51.441Z,64.59
2017-11-17T06:05:19.040Z,63.90
2017-11-17T06:07:46.761Z,63.75
2017-11-17T06:10:14.278Z,63.76
2017-11-17T06:12:41.795Z,63.05
2017-11-17T06:15:09.339Z,63.14
2017-11-17T06:17:36.864Z,62.78
2017-11-17T06:20:04.378Z,62.95
2017-11-17T06:22:32.096Z,63.59
2017-11-17T06:24:59.612Z,63.23
2017-11-17T06:27:27.128Z,63.21
2017-11-17T06:29:54.895Z,62.51
2017-11-17T06:32:22.456Z,62.27
2017-11-17T06:34:49.977Z,62.14
2017-11-17T06:37:18.319Z,61.90
2017-11-17T06:39:45.959Z,61.81
2017-11-17T06:42:13.480Z,62.12
2017-11-17T06:44:41.185Z,61.68
2017-11-17T06:47:08.730Z,61.75
2017-11-17T06:49:36.244Z,61.75
2017-11-17T06:52:03.800Z,61.68
2017-11-17T06:54:31.319Z,61.53
2017-11-17T06:56:59.182Z,61.60
2017-11-17T06:59:27.119Z,61.09
2017-11-17T07:01:54.643Z,60.88
2017-11-17T07:04:22.167Z,61.05
2017-11-17T07:06:49.736Z,60.72
2017-11-17T07:09:17.275Z,60.64
2017-11-17T07:11:44.835Z,60.45
2017-11-17T07:14:12.570Z,60.66
2017-11-17T07:16:40.092Z,60.49
2017-11-17T07:19:07.606Z,60.46
2017-11-17T07:21:35.416Z,60.30
2017-11-17T07:24:02.936Z,60.50
2017-11-17T07:26:30.509Z,60.57
2017-11-17T07:28:58.361Z,59.96
2017-11-17T07:31:25.992Z,60.32
2017-11-17T07:33:53.515Z,60.83
2017-11-17T07:36:21.232Z,60.35
2017-11-17T07:38:48.822Z,61.61
2017-11-17T07:41:16.362Z,61.69
2017-11-17T07:43:44.230Z,61.07
2017-11-17T07:46:11.788Z,60.94
2017-11-17T07:48:39.370Z,61.10
2017-11-17T07:51:06.931Z,61.18
2017-11-17T07:53:34.464Z,61.14
2017-11-17T07:56:02.031Z,60.66
2017-11-17T07:58:29.685Z,60.85
2017-11-17T08:00:57.199Z,61.77
2017-11-17T08:03:24.721Z,61.61
2017-11-17T08:05:52.376Z,62.09
2017-11-17T08:08:19.887Z,62.27
2017-11-17T08:10:47.406Z,62.46
2017-11-17T08:13:15.120Z,62.26
2017-11-17T08:15:42.636Z,61.85
2017-11-17T08:18:22.037Z,61.93
2017-11-17T08:20:49.597Z,61.30
2017-11-17T08:23:17.120Z,62.14
2017-11-17T08:25:44.714Z,61.87
2017-11-17T08:28:12.274Z,61.56
2017-11-17T08:30:39.835Z,61.60
2017-11-17T08:33:07.599Z,61.18
2017-11-17T08:35:35.119Z,61.25
2017-11-17T08:38:02.640Z,61.49
2017-11-17T08:40:30.204Z,62.21
2017-11-17T08:42:57.735Z,62.21
2017-11-17T08:45:25.291Z,61.79
2017-11-17T08:47:53.053Z,61.00
2017-11-17T08:50:20.626Z,60.74
2017-11-17T08:52:48.156Z,60.33
2017-11-17T08:55:15.935Z,60.00
2017-11-17T08:57:43.516Z,59.48
2017-11-17T09:00:11.053Z,59.02
2017-11-17T09:02:38.670Z,59.18
2017-11-17T09:05:06.190Z,60.18
2017-11-17T09:07:33.712Z,60.02
2017-11-17T09:10:01.292Z,60.48
2017-11-17T09:12:28.804Z,59.73
2017-11-17T09:14:56.409Z,59.27
2017-11-17T09:17:23.972Z,59.08
2017-11-17T09:19:51.500Z,60.72
2017-11-17T09:22:19.024Z,60.34
2017-11-17T09:24:46.720Z,60.16
2017-11-17T09:27:14.236Z,60.57
2017-11-17T09:29:41.764Z,60.45
2017-11-17T09:32:09.532Z,60.47
2017-11-17T09:34:37.086Z,60.50
2017-11-17T09:37:04.645Z,60.53
2017-11-17T09:39:32.410Z,60.53
2017-11-17T09:41:59.970Z,60.35
2017-11-17T09:44:27.509Z,60.35
2017-11-17T09:46:55.188Z,59.97
2017-11-17T09:49:23.112Z,60.02
2017-11-17T09:51:50.818Z,59.86
2017-11-17T09:54:18.387Z,59.57
2017-11-17T09:56:45.937Z,59.61
2017-11-17T09:59:14.417Z,59.40
2017-11-17T10:01:42.079Z,58.70
2017-11-17T10:04:09.591Z,58.68
2017-11-17T10:06:37.110Z,58.74
2017-11-17T10:09:04.839Z,58.52
2017-11-17T10:11:32.424Z,58.28
2017-11-17T10:13:59.945Z,58.20
2017-11-17T10:16:27.538Z,58.44
2017-11-17T10:18:55.112Z,58.47
2017-11-17T10:21:22.655Z,58.03
2017-11-17T10:23:50.406Z,57.44
2017-11-17T10:26:17.932Z,57.54
2017-11-17T10:28:45.452Z,57.49
2017-11-17T10:31:13.027Z,57.92
2017-11-17T10:33:40.543Z,57.66
2017-11-17T10:36:08.113Z,56.88
2017-11-17T10:38:35.876Z,56.75
2017-11-17T10:41:03.391Z,56.64
2017-11-17T10:43:31.302Z,55.55
2017-11-17T10:45:58.939Z,56.63
2017-11-17T10:48:26.466Z,56.65
2017-11-17T10:50:53.988Z,56.64
2017-11-17T10:53:21.741Z,56.40
2017-11-17T10:55:52.170Z,57.18
2017-11-17T10:58:19.729Z,57.49
2017-11-17T11:00:47.287Z,57.13
2017-11-17T11:03:14.801Z,57.07
2017-11-17T11:05:42.335Z,57.10
2017-11-17T11:08:10.065Z,57.46
2017-11-17T11:10:38.355Z,57.48
2017-11-17T11:13:05.901Z,57.76
2017-11-17T11:15:33.664Z,58.71
2017-11-17T11:18:01.187Z,59.18
2017-11-17T11:20:28.698Z,58.67
2017-11-17T11:22:56.283Z,57.80
2017-11-17T11:25:23.803Z,57.71
2017-11-17T11:27:51.358Z,58.18
2017-11-17T11:30:19.429Z,58.26
2017-11-17T11:32:47.035Z,58.48
2017-11-17T11:35:14.650Z,57.94
2017-11-17T11:37:42.418Z,58.05
2017-11-17T11:40:09.972Z,57.80
2017-11-17T11:42:37.501Z,57.89
2017-11-17T11:45:05.175Z,57.18
2017-11-17T11:47:32.701Z,57.51
2017-11-17T11:50:00.224Z,57.49
2017-11-17T11:52:28.074Z,57.37
2017-11-17T11:54:55.633Z,58.21
2017-11-17T11:57:23.200Z,57.89
2017-11-17T11:59:50.772Z,57.66
2017-11-17T12:02:18.311Z,56.86
2017-11-17T12:04:45.869Z,57.25
2017-11-17T12:07:13.445Z,57.41
2017-11-17T12:09:40.968Z,58.68
2017-11-17T12:12:08.958Z,57.98
2017-11-17T12:14:36.568Z,57.49
2017-11-17T12:17:04.121Z,57.51
2017-11-17T12:19:31.839Z,58.00
2017-11-17T12:22:00.114Z,57.76
2017-11-17T12:24:27.720Z,57.89
2017-11-17T12:26:55.453Z,58.08
2017-11-17T12:29:23.283Z,58.50
2017-11-17T12:31:50.864Z,58.69
2017-11-17T12:34:18.446Z,58.49
2017-11-17T12:36:46.596Z,58.37
2017-11-17T12:39:14.360Z,58.02
2017-11-17T12:41:41.912Z,58.01
2017-11-17T12:44:09.504Z,58.90
2017-11-17T12:46:37.959Z,58.83
2017-11-17T12:49:05.621Z,59.22
2017-11-17T12:51:33.417Z,58.56
2017-11-17T12:54:01.690Z,58.23
2017-11-17T12:56:29.239Z,59.00
2017-11-17T12:58:56.890Z,58.55
2017-11-17T13:01:24.469Z,58.85
2017-11-17T13:03:52.086Z,59.09
2017-11-17T13:06:19.968Z,59.36
2017-11-17T13:08:48.069Z,59.28
2017-11-17T13:11:15.804Z,59.72
2017-11-17T13:13:43.829Z,59.89
2017-11-17T13:16:11.433Z,60.03
2017-11-17T13:18:39.304Z,60.37
2017-11-17T13:21:07.272Z,59.96
2017-11-17T13:23:35.339Z,59.46
2017-11-17T13:26:03.102Z,59.97
2017-11-17T13:28:31.074Z,59.99
2017-11-17T13:30:58.952Z,59.51
2017-11-17T13:33:26.700Z,59.10
2017-11-17T13:35:54.694Z,58.78
2017-11-17T13:38:22.853Z,59.48
2017-11-17T13:40:50.710Z,59.05
2017-11-17T13:43:19.076Z,58.73
2017-11-17T13:45:46.955Z,58.46
2017-11-17T13:48:14.843Z,58.64
2017-11-17T13:50:42.848Z,58.81
2017-11-17T13:53:10.626Z,58.68
2017-11-17T13:55:38.318Z,59.12
2017-11-17T13:58:06.393Z,59.01
2017-11-17T14:00:33.955Z,58.63
2017-11-17T14:03:01.564Z,58.39
2017-11-17T14:05:29.577Z,58.98
2017-11-17T14:07:57.119Z,59.14
2017-11-17T14:10:24.721Z,58.73
2017-11-17T14:12:53.211Z,60.30
2017-11-17T14:15:20.735Z,59.62
2017-11-17T14:17:48.314Z,60.92
2017-11-17T14:20:16.282Z,61.02
2017-11-17T14:22:43.811Z,61.46
2017-11-17T14:25:11.688Z,60.73
2017-11-17T14:27:39.424Z,60.74
2017-11-17T14:30:07.231Z,61.32
2017-11-17T14:32:34.924Z,61.21
2017-11-17T14:35:02.742Z,61.79
2017-11-17T14:37:30.263Z,61.86
2017-11-17T14:39:57.807Z,61.66
2017-11-17T14:42:25.751Z,61.30
2017-11-17T14:44:53.307Z,61.47
2017-11-17T14:47:21.169Z,61.36
2017-11-17T14:49:49.122Z,61.59
2017-11-17T14:52:16.873Z,61.74
2017-11-17T14:54:44.714Z,61.21
2017-11-17T14:57:12.615Z,61.82
2017-11-17T14:59:40.216Z,62.61
2017-11-17T15:02:07.990Z,62.77
2017-11-17T15:04:36.626Z,62.20
2017-11-17T15:07:04.493Z,62.13
2017-11-17T15:09:32.129Z,61.87
2017-11-17T15:12:00.124Z,61.94
2017-11-17T15:14:27.924Z,61.79
2017-11-17T15:16:55.855Z,62.33
2017-11-17T15:19:23.699Z,62.21
2017-11-17T15:21:51.405Z,63.15
2017-11-17T15:24:19.147Z,62.52
2017-11-17T15:26:46.925Z,62.73
2017-11-17T15:29:14.676Z,62.18
2017-11-17T15:31:42.456Z,62.13
2017-11-17T15:34:10.930Z,61.93
2017-11-17T15:36:38.794Z,61.72
2017-11-17T15:39:06.669Z,61.92
2017-11-17T15:41:35.031Z,61.88
2017-11-17T15:44:03.102Z,61.76
2017-11-17T15:46:31.071Z,61.58
2017-11-17T15:48:59.206Z,61.79
2017-11-17T15:51:27.109Z,61.49
2017-11-17T15:53:54.886Z,61.44
2017-11-17T15:56:23.991Z,61.81
2017-11-17T15:58:53.370Z,61.85
2017-11-17T16:01:21.157Z,61.77
2017-11-17T16:03:49.922Z,61.45
2017-11-17T16:06:17.687Z,61.35
2017-11-17T16:08:45.656Z,61.66
2017-11-17T16:11:13.624Z,61.81
2017-11-17T16:13:41.408Z,62.44
2017-11-17T16:16:09.561Z,62.42
2017-11-17T16:18:37.632Z,62.11
2017-11-17T16:21:05.513Z,62.47
2017-11-17T16:23:33.250Z,62.42
2017-11-17T16:26:01.539Z,61.81
2017-11-17T16:28:29.721Z,61.68
2017-11-17T16:30:57.701Z,61.75
2017-11-17T16:33:25.649Z,61.97
2017-11-17T16:35:53.477Z,62.07
2017-11-17T16:38:21.292Z,62.06
2017-11-17T16:40:49.271Z,61.90
2017-11-17T16:43:17.012Z,62.15
2017-11-17T16:45:46.384Z,62.22
2017-11-17T16:48:14.387Z,62.19
2017-11-17T16:50:42.659Z,61.90
2017-11-17T16:53:10.427Z,61.81
2017-11-17T16:55:38.393Z,61.80
2017-11-17T16:58:06.573Z,63.22
2017-11-17T17:00:34.961Z,63.21
2017-11-17T17:03:03.038Z,63.12
2017-11-17T17:05:31.251Z,63.41
2017-11-17T17:07:59.171Z,63.42
2017-11-17T17:10:27.511Z,62.94
2017-11-17T17:12:55.300Z,63.10
2017-11-17T17:15:23.064Z,62.91
2017-11-17T17:17:50.957Z,62.64
2017-11-17T17:20:18.679Z,62.85
2017-11-17T17:22:46.560Z,62.60
2017-11-17T17:25:14.531Z,62.91
2017-11-17T17:27:42.202Z,63.14
2017-11-17T17:30:10.364Z,62.79
2017-11-17T17:32:38.640Z,62.95
2017-11-17T17:35:06.513Z,62.96
2017-11-17T17:37:34.372Z,62.57
2017-11-17T17:40:03.071Z,62.94
2017-11-17T17:42:30.853Z,63.09
2017-11-17T17:44:58.600Z,64.02
2017-11-17T17:47:26.317Z,63.67
2017-11-17T17:49:54.084Z,63.29
2017-11-17T17:52:21.770Z,63.52
2017-11-17T17:54:49.949Z,64.23
2017-11-17T17:57:17.936Z,64.14
2017-11-17T17:59:45.785Z,64.04
2017-11-17T18:02:14.908Z,63.48
2017-11-17T18:04:42.746Z,63.17
2017-11-17T18:07:10.816Z,63.69
2017-11-17T18:09:39.095Z,64.04
2017-11-17T18:12:07.485Z,64.19
2017-11-17T18:14:36.946Z,64.23
2017-11-17T18:17:05.389Z,63.63
2017-11-17T18:19:33.631Z,63.20
2017-11-17T18:22:01.805Z,63.85
2017-11-17T18:24:30.105Z,63.95
2017-11-17T18:26:58.828Z,63.93
2017-11-17T18:29:26.739Z,64.26
2017-11-17T18:31:55.523Z,63.86
2017-11-17T18:34:23.900Z,63.79
2017-11-17T18:36:52.833Z,63.51
2017-11-17T18:39:22.521Z,63.67
2017-11-17T18:41:50.469Z,64.13
2017-11-17T18:44:18.338Z,63.38
2017-11-17T18:46:46.509Z,63.15
2017-11-17T18:49:14.335Z,64.37
2017-11-17T18:51:42.177Z,65.17
2017-11-17T18:54:10.417Z,64.15
2017-11-17T18:56:39.304Z,63.68
2017-11-17T18:59:07.460Z,63.60
2017-11-17T19:01:35.755Z,63.89
2017-11-17T19:04:03.650Z,63.50
2017-11-17T19:06:31.795Z,63.25
2017-11-17T19:09:00.684Z,63.08
2017-11-17T19:11:28.568Z,62.91
2017-11-17T19:13:56.417Z,62.97
2017-11-17T19:16:24.491Z,62.96
2017-11-17T19:18:52.273Z,62.79
2017-11-17T19:21:20.222Z,62.35
2017-11-17T19:23:48.189Z,62.33
2017-11-17T19:26:15.976Z,62.37
2017-11-17T19:28:43.821Z,62.24
2017-11-17T19:31:11.804Z,62.05
2017-11-17T19:33:39.930Z,62.43
2017-11-17T19:36:09.748Z,62.59
2017-11-17T19:38:37.863Z,62.13
2017-11-17T19:41:05.704Z,62.61
2017-11-17T19:43:33.607Z,62.66
2017-11-17T19:46:01.959Z,62.68
2017-11-17T19:48:30.546Z,62.36
2017-11-17T19:50:58.405Z,62.32
2017-11-17T19:53:26.580Z,62.46
2017-11-17T19:55:54.546Z,62.51
2017-11-17T19:58:22.352Z,62.68
2017-11-17T20:00:50.503Z,63.04
2017-11-17T20:03:18.250Z,63.09
2017-11-17T20:05:46.116Z,63.01
2017-11-17T20:08:14.085Z,63.87
2017-11-17T20:10:42.069Z,64.13
2017-11-17T20:13:10.072Z,64.94
2017-11-17T20:15:37.887Z,64.43
2017-11-17T20:18:06.266Z,64.04
2017-11-17T20:20:34.078Z,63.92
2017-11-17T20:23:02.146Z,63.80
2017-11-17T20:25:30.070Z,64.10
2017-11-17T20:27:58.345Z,63.87
2017-11-17T20:30:26.929Z,63.80
2017-11-17T20:32:54.922Z,64.31
2017-11-17T20:35:22.766Z,64.15
2017-11-17T20:37:51.140Z,64.06
2017-11-17T20:40:19.040Z,64.11
2017-11-17T20:42:46.774Z,64.16
2017-11-17T20:45:15.138Z,64.05
2017-11-17T20:47:42.932Z,64.33
2017-11-17T20:50:11.717Z,64.35
2017-11-17T20:52:39.671Z,64.01
2017-11-17T20:55:07.230Z,63.52
2017-11-17T20:57:34.891Z,63.53
2017-11-17T21:00:02.861Z,63.69
2017-11-17T21:02:31.034Z,63.90
2017-11-17T21:04:58.681Z,63.61
2017-11-17T21:07:26.476Z,63.69
2017-11-17T21:09:54.841Z,63.61
2017-11-17T21:12:22.499Z,63.83
2017-11-17T21:14:50.468Z,63.69
2017-11-17T21:17:18.140Z,63.58
2017-11-17T21:19:45.880Z,64.32
2017-11-17T21:22:13.862Z,64.93
2017-11-17T21:24:42.445Z,65.14
2017-11-17T21:27:10.416Z,64.11
2017-11-17T21:29:38.464Z,64.45
2017-11-17T21:32:06.147Z,64.85
2017-11-17T21:34:33.760Z,64.80
2017-11-17T21:37:01.688Z,64.89
2017-11-17T21:39:29.330Z,64.87
2017-11-17T21:41:57.114Z,64.55
2017-11-17T21:44:24.968Z,64.51
2017-11-17T21:46:52.627Z,64.36
2017-11-17T21:49:20.218Z,64.49
2017-11-17T21:51:48.164Z,63.97
2017-11-17T21:54:15.860Z,64.10
2017-11-17T21:56:43.683Z,63.98
2017-11-17T21:59:11.758Z,63.92
2017-11-17T22:01:39.422Z,63.62
2017-11-17T22:04:07.192Z,63.53
2017-11-17T22:06:35.354Z,63.63
2017-11-17T22:09:03.116Z,63.28
2017-11-17T22:11:30.986Z,63.42
2017-11-17T22:13:58.853Z,63.22
2017-11-17T22:16:27.134Z,62.97
2017-11-17T22:18:54.890Z,62.84
2017-11-17T22:21:23.175Z,63.41
2017-11-17T22:23:50.829Z,63.14
2017-11-17T22:26:18.600Z,63.12
2017-11-17T22:28:46.517Z,63.60
2017-11-17T22:31:14.786Z,63.45
2017-11-17T22:33:42.427Z,63.60
2017-11-17T22:36:10.171Z,63.77
2017-11-17T22:38:37.821Z,63.82
2017-11-17T22:41:06.508Z,63.31
2017-11-17T22:43:34.278Z,63.40
2017-11-17T22:46:02.060Z,63.46
2017-11-17T22:48:29.798Z,62.77
2017-11-17T22:50:57.817Z,62.87
2017-11-17T22:53:25.737Z,63.45
2017-11-17T22:55:53.369Z,63.55
2017-11-17T22:58:21.377Z,64.14
2017-11-17T23:00:49.048Z,63.64
2017-11-17T23:03:16.759Z,63.73
2017-11-17T23:05:44.452Z,63.91
2017-11-17T23:08:12.046Z,64.19
2017-11-17T23:10:39.605Z,65.11
2017-11-17T23:13:07.539Z,65.26
2017-11-17T23:15:35.308Z,68.25
2017-11-17T23:18:02.847Z,68.33
2017-11-17T23:20:30.482Z,68.59
2017-11-17T23:22:58.084Z,69.36
2017-11-17T23:25:25.607Z,69.75
2017-11-17T23:27:53.201Z,70.33
2017-11-17T23:30:20.760Z,70.45
2017-11-17T23:32:48.319Z,70.47
2017-11-17T23:35:15.971Z,71.11
2017-11-17T23:37:43.530Z,71.71
2017-11-17T23:40:11.166Z,71.84
2017-11-17T23:42:39.885Z,71.13
2017-11-17T23:45:07.408Z,70.16
2017-11-17T23:47:34.930Z,68.75
2017-11-17T23:50:02.487Z,68.39
2017-11-17T23:52:30.041Z,67.51
2017-11-17T23:54:57.587Z,67.59
2017-11-17T23:57:25.342Z,67.25
2017-11-17T23:59:52.892Z,66.53
